Time;durP1;ratioP1;P1;durP2;ratioP2;P2;SDS_P1;SDS_P2;PMS_P1;PMS_P2;Temp;Humidity;BMP_temperature;BMP_pressure;BME280_temperature;BME280_humidity;BME280_pressure;Samples;Min_cycle;Max_cycle;Signal;HPM_P1;HPM_P2
2022/09/15 00:01:56;;;;;;;4.70;4.40;;;20.60;99.90;;;;;;10384192;28;20211;-79
2022/09/15 00:07:00;;;;;;;4.57;4.17;;;20.60;99.90;;;;;;10425155;28;20190;-79
2022/09/15 00:12:02;;;;;;;4.50;4.20;;;20.60;99.90;;;;;;10427225;28;20222;-79
2022/09/15 00:17:04;;;;;;;4.33;4.03;;;20.60;99.90;;;;;;10387191;28;20248;-79
2022/09/15 00:22:08;;;;;;;4.80;4.50;;;20.60;99.90;;;;;;10423590;28;20214;-79
2022/09/15 00:27:10;;;;;;;5.23;4.83;;;20.60;99.90;;;;;;10383632;28;20224;-79
2022/09/15 00:32:12;;;;;;;5.90;3.77;;;20.50;99.90;;;;;;10419976;28;20696;-78
2022/09/15 00:43:46;;;;;;;3.60;3.50;;;20.50;99.90;;;;;;10385913;28;20174;-79
2022/09/15 00:48:53;;;;;;;3.40;3.17;;;20.50;99.90;;;;;;10412441;28;20211;-79
2022/09/15 00:53:59;;;;;;;3.17;3.07;;;20.50;99.90;;;;;;10389047;28;20198;-79
2022/09/15 00:59:07;;;;;;;2.67;2.53;;;20.50;99.90;;;;;;10410868;28;20214;-78
2022/09/15 01:04:09;;;;;;;3.33;3.13;;;20.60;99.90;;;;;;10388875;28;20224;-79
2022/09/15 01:09:16;;;;;;;3.70;3.43;;;20.60;99.90;;;;;;10411198;28;20225;-80
2022/09/15 01:14:20;;;;;;;3.73;3.33;;;20.60;99.90;;;;;;10390483;28;20199;-79
2022/09/15 01:20:04;;;;;;;3.60;3.40;;;20.50;99.90;;;;;;10411884;28;20215;-79
2022/09/15 01:25:19;;;;;;;3.90;3.50;;;20.50;99.90;;;;;;10388705;28;20194;-79
2022/09/15 01:30:23;;;;;;;3.87;3.67;;;20.50;99.90;;;;;;10401210;28;20379;-79
2022/09/15 01:35:40;;;;;;;3.87;3.67;;;20.50;99.90;;;;;;10402664;28;20220;-77
2022/09/15 01:40:48;;;;;;;3.80;3.60;;;20.50;99.90;;;;;;10404786;28;20246;-79
2022/09/15 01:45:53;;;;;;;3.60;3.20;;;20.50;99.90;;;;;;10397631;28;20273;-78
2022/09/15 01:51:00;;;;;;;4.23;4.03;;;20.40;99.90;;;;;;10403153;28;20226;-79
2022/09/15 01:56:06;;;;;;;3.60;3.43;;;20.40;99.90;;;;;;10395054;28;20268;-79
2022/09/15 02:01:13;;;;;;;4.27;3.87;;;20.30;99.90;;;;;;10403534;28;20223;-78
2022/09/15 02:06:21;;;;;;;4.03;3.63;;;20.30;99.90;;;;;;10379999;28;20198;-79
2022/09/15 02:11:26;;;;;;;4.20;3.80;;;20.30;99.90;;;;;;10402774;28;20236;-79
2022/09/15 02:16:35;;;;;;;3.37;3.17;;;20.20;99.90;;;;;;10401577;28;20217;-78
2022/09/15 02:21:48;;;;;;;3.80;3.50;;;20.20;99.90;;;;;;10386533;28;20229;-79
2022/09/15 02:26:53;;;;;;;3.20;3.00;;;20.20;99.90;;;;;;10400226;28;20186;-79
2022/09/15 02:32:01;;;;;;;4.77;3.40;;;20.20;99.90;;;;;;10400487;28;20218;-79
2022/09/15 02:37:04;;;;;;;3.37;3.17;;;20.30;99.90;;;;;;10400717;28;20216;-78
2022/09/15 02:42:07;;;;;;;3.83;3.63;;;20.20;99.90;;;;;;10403085;28;20679;-79
2022/09/15 02:47:11;;;;;;;4.53;4.10;;;20.20;99.90;;;;;;10402657;28;20609;-79
2022/09/15 02:52:13;;;;;;;3.50;3.30;;;20.20;99.90;;;;;;10404285;28;20225;-79
2022/09/15 02:57:15;;;;;;;4.47;4.20;;;20.20;99.90;;;;;;10401491;28;20225;-78
2022/09/15 03:02:19;;;;;;;3.87;3.67;;;20.20;99.90;;;;;;10404259;28;20222;-79
2022/09/15 03:07:21;;;;;;;3.93;3.73;;;20.20;99.90;;;;;;10403870;28;20260;-80
2022/09/15 03:12:24;;;;;;;2.17;1.97;;;20.20;99.90;;;;;;10411692;28;20222;-79
2022/09/15 03:17:28;;;;;;;4.23;4.03;;;20.20;99.90;;;;;;10397306;28;20213;-79
2022/09/15 03:22:30;;;;;;;2.83;2.63;;;20.10;99.90;;;;;;10402670;28;20637;-79
2022/09/15 03:27:32;;;;;;;4.50;4.23;;;20.10;99.90;;;;;;10405349;28;20197;-78
2022/09/15 03:32:36;;;;;;;4.37;4.07;;;20.10;99.90;;;;;;10415259;28;20332;-78
2022/09/15 03:37:38;;;;;;;4.00;3.80;;;20.10;99.90;;;;;;10400800;28;20221;-79
2022/09/15 03:42:40;;;;;;;3.93;3.63;;;20.00;99.90;;;;;;10409879;28;20673;-79
2022/09/15 03:47:43;;;;;;;5.10;3.00;;;20.00;99.90;;;;;;10393798;28;20252;-79
2022/09/15 03:52:45;;;;;;;4.00;3.70;;;20.00;99.90;;;;;;10402008;28;20797;-79
2022/09/15 03:57:47;;;;;;;4.53;4.23;;;20.00;99.90;;;;;;10391112;28;20221;-78
2022/09/15 04:02:51;;;;;;;5.20;4.90;;;19.90;99.90;;;;;;10403440;28;20661;-78
2022/09/15 04:07:53;;;;;;;5.10;4.90;;;19.90;99.90;;;;;;10392734;28;20190;-79
2022/09/15 04:12:55;;;;;;;5.43;5.20;;;19.90;99.90;;;;;;10405209;28;20614;-79
2022/09/15 04:17:58;;;;;;;5.80;5.50;;;19.90;99.90;;;;;;10394073;28;20728;-79
2022/09/15 04:23:00;;;;;;;5.70;5.40;;;19.80;99.90;;;;;;10417665;28;20218;-79
2022/09/15 04:28:02;;;;;;;5.47;5.17;;;19.80;99.90;;;;;;10397847;28;20190;-79
2022/09/15 04:33:07;;;;;;;5.30;5.00;;;19.90;99.90;;;;;;10412424;28;20222;-79
2022/09/15 04:38:09;;;;;;;6.20;5.83;;;19.80;99.90;;;;;;10397476;28;20214;-79
2022/09/15 04:43:11;;;;;;;4.37;4.17;;;19.80;99.90;;;;;;10412082;28;20225;-79
2022/09/15 04:48:14;;;;;;;5.07;4.77;;;19.80;99.90;;;;;;10401315;28;20186;-79
2022/09/15 04:53:17;;;;;;;5.70;5.40;;;19.80;99.90;;;;;;10415446;28;20221;-78
2022/09/15 04:58:19;;;;;;;2.80;2.60;;;19.70;99.90;;;;;;10393783;28;20245;-79
2022/09/15 05:03:22;;;;;;;4.27;4.07;;;19.70;99.90;;;;;;10413594;28;20352;-79
2022/09/15 05:08:24;;;;;;;3.87;3.67;;;19.70;99.90;;;;;;10392946;28;20186;-80
2022/09/15 05:13:26;;;;;;;5.10;4.70;;;19.70;99.90;;;;;;10414170;28;20226;-79
2022/09/15 05:18:30;;;;;;;4.17;3.80;;;19.70;99.90;;;;;;10393448;28;20201;-79
2022/09/15 05:23:33;;;;;;;3.50;3.30;;;19.70;99.90;;;;;;10417526;28;20254;-78
2022/09/15 05:28:37;;;;;;;4.43;4.23;;;19.80;99.90;;;;;;10405488;28;20221;-79
2022/09/15 05:33:40;;;;;;;4.63;4.43;;;19.80;99.90;;;;;;10413706;28;20199;-80
2022/09/15 05:38:43;;;;;;;5.17;4.93;;;19.90;99.90;;;;;;10389580;28;20320;-79
2022/09/15 05:43:46;;;;;;;4.80;4.60;;;19.90;99.90;;;;;;10414545;28;20546;-80
2022/09/15 05:48:49;;;;;;;4.40;4.20;;;19.90;99.90;;;;;;10370979;28;20300;-79
2022/09/15 05:53:52;;;;;;;4.60;4.37;;;19.90;99.90;;;;;;10413582;28;20194;-78
2022/09/15 05:58:54;;;;;;;4.33;3.93;;;20.00;99.90;;;;;;10386947;28;20682;-79
2022/09/15 06:03:58;;;;;;;5.13;4.80;;;20.00;99.90;;;;;;10413287;28;20202;-79
2022/09/15 06:09:00;;;;;;;4.50;4.20;;;20.10;99.90;;;;;;10387064;28;20300;-79
2022/09/15 06:14:04;;;;;;;4.67;4.37;;;20.10;99.90;;;;;;10415008;28;20269;-80
2022/09/15 06:19:08;;;;;;;3.00;2.40;;;20.10;99.90;;;;;;10387384;28;20267;-79
2022/09/15 06:24:11;;;;;;;3.80;3.60;;;20.10;99.90;;;;;;10414845;28;20199;-78
2022/09/15 06:29:13;;;;;;;2.07;1.80;;;20.20;99.90;;;;;;10387152;28;20198;-79
2022/09/15 06:34:17;;;;;;;4.20;4.00;;;20.30;99.90;;;;;;10415681;28;20201;-79
2022/09/15 06:39:19;;;;;;;4.97;2.90;;;20.30;99.90;;;;;;10384062;28;20240;-79
2022/09/15 06:44:22;;;;;;;4.80;4.60;;;20.30;99.90;;;;;;10414937;28;20572;-79
2022/09/15 06:49:25;;;;;;;5.60;5.20;;;20.20;99.90;;;;;;10384736;28;20549;-79
2022/09/15 06:54:27;;;;;;;7.00;6.53;;;20.00;99.90;;;;;;10409426;28;20195;-79
2022/09/15 06:59:29;;;;;;;9.23;8.70;;;19.80;99.90;;;;;;10376875;28;20694;-79
2022/09/15 07:04:35;;;;;;;12.43;11.63;;;19.60;99.90;;;;;;10412445;28;20199;-79
2022/09/15 07:09:37;;;;;;;14.40;13.60;;;19.50;99.90;;;;;;10375408;28;20760;-79
2022/09/15 07:14:39;;;;;;;15.10;14.30;;;19.40;99.90;;;;;;10409800;28;20246;-79
2022/09/15 07:19:44;;;;;;;13.80;13.20;;;19.30;99.90;;;;;;10376452;28;20241;-79
2022/09/15 07:24:46;;;;;;;14.77;13.97;;;19.20;99.90;;;;;;10416093;28;20234;-79
2022/09/15 07:29:48;;;;;;;12.60;12.00;;;19.10;99.90;;;;;;10373521;28;20307;-79
2022/09/15 07:34:51;;;;;;;12.33;11.73;;;19.10;99.90;;;;;;10374844;28;20722;-79
2022/09/15 07:39:53;;;;;;;6.30;6.00;;;19.10;99.90;;;;;;10410875;28;20240;-79
2022/09/15 07:44:55;;;;;;;9.10;8.60;;;19.10;99.90;;;;;;10380767;28;20194;-79
2022/09/15 07:49:59;;;;;;;10.07;9.57;;;19.10;99.90;;;;;;10412542;28;20599;-79
2022/09/15 07:55:01;;;;;;;11.50;10.90;;;19.00;99.90;;;;;;10374550;28;20248;-79
2022/09/15 08:00:03;;;;;;;11.70;11.20;;;19.00;99.90;;;;;;10419906;28;20256;-79
2022/09/15 08:05:15;;;;;;;11.60;11.10;;;19.00;99.90;;;;;;10380747;28;20198;-79
2022/09/15 08:10:17;;;;;;;12.80;12.13;;;18.90;99.90;;;;;;10420226;28;20210;-79
2022/09/15 08:15:20;;;;;;;11.70;11.20;;;18.80;99.90;;;;;;10384085;28;20191;-79
2022/09/15 08:20:23;;;;;;;12.20;11.50;;;18.80;99.90;;;;;;10420624;28;20688;-79
2022/09/15 08:25:25;;;;;;;12.00;11.40;;;18.80;99.90;;;;;;10378867;28;20199;-79
2022/09/15 08:30:27;;;;;;;12.27;11.57;;;18.80;99.90;;;;;;10422987;28;20209;-79
2022/09/15 08:35:33;;;;;;;13.00;12.30;;;18.80;99.90;;;;;;10378913;28;20306;-79
2022/09/15 08:40:37;;;;;;;11.50;10.90;;;18.80;99.90;;;;;;10378710;28;20648;-79
2022/09/15 08:45:48;;;;;;;12.90;12.10;;;18.80;99.90;;;;;;10378656;28;20190;-79
2022/09/15 08:50:56;;;;;;;13.13;12.33;;;18.90;99.90;;;;;;10379708;28;20207;-79
2022/09/15 08:56:02;;;;;;;11.63;11.03;;;18.80;99.90;;;;;;10417674;28;20201;-79
2022/09/15 09:01:16;;;;;;;11.97;11.47;;;18.90;99.90;;;;;;10380099;28;20233;-79
2022/09/15 09:06:28;;;;;;;9.77;9.37;;;18.90;99.90;;;;;;10416305;28;20273;-79
2022/09/15 09:11:50;;;;;;;12.60;12.00;;;19.00;99.90;;;;;;10382803;28;20260;-79
2022/09/15 09:17:09;;;;;;;10.20;9.80;;;19.10;99.90;;;;;;10420721;28;20215;-80
2022/09/15 09:22:16;;;;;;;12.47;11.97;;;19.30;99.90;;;;;;10395535;28;20221;-79
2022/09/15 09:27:22;;;;;;;10.03;9.63;;;19.40;99.90;;;;;;10414029;28;20632;-79
2022/09/15 09:32:27;;;;;;;11.30;10.80;;;19.50;99.90;;;;;;10388702;28;20229;-79
2022/09/15 09:37:30;;;;;;;9.43;8.97;;;19.60;99.90;;;;;;10415933;28;20298;-80
2022/09/15 09:42:35;;;;;;;10.60;10.10;;;19.80;99.90;;;;;;10390374;28;20669;-80
2022/09/15 09:47:40;;;;;;;11.70;10.83;;;19.80;99.90;;;;;;10417700;28;20199;-79
2022/09/15 09:52:44;;;;;;;7.30;7.00;;;19.90;99.90;;;;;;10395295;28;20240;-78
2022/09/15 09:57:46;;;;;;;6.40;5.90;;;19.90;99.90;;;;;;10421176;28;20289;-78
2022/09/15 10:02:48;;;;;;;9.30;8.80;;;19.90;99.90;;;;;;10394491;28;20222;-79
2022/09/15 10:07:51;;;;;;;10.30;9.73;;;19.80;99.90;;;;;;10422149;28;20263;-80
2022/09/15 10:12:55;;;;;;;9.30;8.80;;;19.60;99.90;;;;;;10410949;28;20694;-79
2022/09/15 10:17:58;;;;;;;8.57;8.27;;;19.40;99.90;;;;;;10378239;28;20218;-79
2022/09/15 10:23:23;;;;;;;10.30;9.90;;;19.20;99.90;;;;;;10410450;28;20237;-79
2022/09/15 10:28:26;;;;;;;6.13;5.83;;;19.00;99.90;;;;;;10381928;28;20197;-79
2022/09/15 10:33:30;;;;;;;8.73;8.13;;;18.90;99.90;;;;;;10390321;28;20451;-79
2022/09/15 10:38:40;;;;;;;10.33;9.93;;;18.80;99.90;;;;;;10380890;28;20214;-79
2022/09/15 10:43:55;;;;;;;10.10;9.70;;;18.70;99.90;;;;;;10406597;28;20285;-79
2022/09/15 10:49:19;;;;;;;5.30;5.03;;;18.60;99.90;;;;;;10383798;28;20220;-79
2022/09/15 10:54:59;;;;;;;12.03;10.97;;;18.30;99.90;;;;;;10401935;28;20202;-79
2022/09/15 11:00:05;;;;;;;8.90;8.30;;;18.10;99.90;;;;;;10382537;28;20232;-79
2022/09/15 11:05:22;;;;;;;12.80;12.10;;;17.90;99.90;;;;;;10398124;28;20236;-80
2022/09/15 11:10:35;;;;;;;13.00;12.20;;;17.80;99.90;;;;;;10392483;28;20252;-79
2022/09/15 11:15:49;;;;;;;12.30;11.70;;;17.70;99.90;;;;;;10395586;28;20198;-79
2022/09/15 11:21:09;;;;;;;10.20;9.40;;;17.50;99.90;;;;;;10375317;28;20236;-79
2022/09/15 11:26:19;;;;;;;14.03;13.27;;;17.50;99.90;;;;;;10396289;28;20200;-79
2022/09/15 11:31:25;;;;;;;13.80;12.83;;;17.40;99.90;;;;;;10396555;28;20215;-79
2022/09/15 11:36:32;;;;;;;13.23;12.43;;;17.40;99.90;;;;;;10391865;28;20194;-79
2022/09/15 11:41:40;;;;;;;13.83;13.03;;;17.30;99.90;;;;;;10396591;28;20634;-79
2022/09/15 11:47:01;;;;;;;14.63;13.77;;;17.20;99.90;;;;;;10404720;28;20209;-79
2022/09/15 11:52:14;;;;;;;14.80;14.00;;;17.20;99.90;;;;;;10394763;28;20214;-79
2022/09/15 11:57:24;;;;;;;14.77;13.97;;;17.20;99.90;;;;;;10407058;28;20630;-79
2022/09/15 12:02:32;;;;;;;15.93;14.90;;;17.20;99.90;;;;;;10391140;28;20242;-79
2022/09/15 12:07:41;;;;;;;10.17;9.40;;;17.10;99.90;;;;;;10409560;28;20198;-79
2022/09/15 12:12:46;;;;;;;9.33;8.67;;;17.10;99.90;;;;;;10390500;28;20233;-79
2022/09/15 12:17:52;;;;;;;13.80;12.80;;;17.10;99.90;;;;;;10410023;28;20214;-79
2022/09/15 12:23:02;;;;;;;14.00;13.00;;;17.10;99.90;;;;;;10397787;28;20215;-79
2022/09/15 12:28:36;;;;;;;12.73;11.97;;;17.20;99.90;;;;;;10411291;28;20252;-79
2022/09/15 12:33:46;;;;;;;13.43;12.27;;;17.30;99.90;;;;;;10388449;28;20632;-79
2022/09/15 12:38:49;;;;;;;13.73;12.70;;;17.50;99.90;;;;;;10419459;28;20246;-79
2022/09/15 12:43:55;;;;;;;13.30;12.50;;;17.90;99.90;;;;;;10389345;28;20257;-79
2022/09/15 12:49:01;;;;;;;12.20;11.50;;;18.10;99.90;;;;;;10416582;28;20236;-79
2022/09/15 12:54:07;;;;;;;11.40;10.67;;;18.30;99.90;;;;;;10388966;28;20638;-79
2022/09/15 12:59:13;;;;;;;6.73;6.13;;;18.40;99.90;;;;;;10419319;28;20374;-79
2022/09/15 13:04:43;;;;;;;11.53;10.73;;;18.50;99.90;;;;;;10390469;28;20211;-79
2022/09/15 13:09:56;;;;;;;7.20;6.70;;;18.70;99.90;;;;;;10420861;28;20241;-79
2022/09/15 13:15:03;;;;;;;10.37;9.57;;;18.80;99.90;;;;;;10387946;28;20640;-79
2022/09/15 13:20:14;;;;;;;9.63;9.10;;;18.90;99.90;;;;;;10424072;28;20638;-79
2022/09/15 13:25:19;;;;;;;9.53;8.93;;;19.00;99.90;;;;;;10382606;28;20190;-79
2022/09/15 13:30:37;;;;;;;9.63;9.03;;;19.10;99.90;;;;;;10422434;28;20225;-79
2022/09/15 13:35:57;;;;;;;9.40;8.50;;;19.20;99.90;;;;;;10382880;28;20613;-79
2022/09/15 13:41:21;;;;;;;9.63;8.83;;;19.30;99.90;;;;;;10419478;28;20222;-79
2022/09/15 13:46:36;;;;;;;8.33;7.77;;;19.30;99.90;;;;;;10378514;28;20259;-79
2022/09/15 13:51:41;;;;;;;7.90;7.40;;;19.40;99.90;;;;;;10417926;28;20261;-79
2022/09/15 13:56:46;;;;;;;7.80;7.20;;;19.50;99.90;;;;;;10389910;28;20612;-79
2022/09/15 14:01:50;;;;;;;9.43;6.73;;;19.50;99.90;;;;;;10417201;28;20300;-79
2022/09/15 14:06:54;;;;;;;7.43;7.03;;;19.50;99.90;;;;;;10387363;28;20225;-79
2022/09/15 14:11:59;;;;;;;6.90;6.50;;;19.50;99.90;;;;;;10414401;28;20222;-79
2022/09/15 14:17:03;;;;;;;6.90;6.40;;;19.50;99.90;;;;;;10386674;28;20194;-79
2022/09/15 14:22:24;;;;;;;7.00;6.23;;;19.40;99.90;;;;;;10415710;28;20694;-79
2022/09/15 14:27:29;;;;;;;5.63;5.13;;;19.30;99.90;;;;;;10389209;28;20724;-79
2022/09/15 14:32:37;;;;;;;7.30;6.90;;;19.30;99.90;;;;;;10412523;28;20215;-79
2022/09/15 14:37:39;;;;;;;6.90;6.40;;;19.30;99.90;;;;;;10389360;28;20247;-80
2022/09/15 14:42:41;;;;;;;6.23;5.93;;;19.30;99.90;;;;;;10412872;28;20599;-80
2022/09/15 14:47:45;;;;;;;6.50;6.00;;;19.10;99.90;;;;;;10389390;28;20193;-80
2022/09/15 14:52:50;;;;;;;6.23;5.83;;;19.10;99.90;;;;;;10413186;28;20222;-79
2022/09/15 14:57:57;;;;;;;6.43;6.03;;;19.10;99.90;;;;;;10394579;28;20623;-79
2022/09/15 15:03:14;;;;;;;6.33;5.83;;;19.00;99.90;;;;;;10410918;28;20222;-79
2022/09/15 15:08:27;;;;;;;7.33;6.83;;;19.10;99.90;;;;;;10388763;28;20201;-79
2022/09/15 15:13:29;;;;;;;6.40;6.00;;;19.00;99.90;;;;;;10407047;28;20805;-79
2022/09/15 15:18:38;;;;;;;7.63;7.13;;;19.00;99.90;;;;;;10386404;28;20214;-79
2022/09/15 15:23:45;;;;;;;5.93;5.43;;;19.00;99.90;;;;;;10405439;28;20194;-79
2022/09/15 15:28:47;;;;;;;6.83;6.43;;;19.00;99.90;;;;;;10387265;28;20220;-79
2022/09/15 15:33:54;;;;;;;5.73;5.40;;;19.20;99.90;;;;;;10406031;28;20207;-79
2022/09/15 15:38:59;;;;;;;5.67;5.23;;;19.40;99.90;;;;;;10387839;28;20240;-79
2022/09/15 15:44:06;;;;;;;7.37;5.70;;;19.60;99.90;;;;;;10405204;28;20254;-79
2022/09/15 15:49:12;;;;;;;6.03;5.53;;;19.60;99.90;;;;;;10387423;28;20205;-79
2022/09/15 15:54:14;;;;;;;6.43;5.93;;;19.70;99.90;;;;;;10405566;28;20285;-79
2022/09/15 15:59:17;;;;;;;5.90;5.40;;;19.60;99.90;;;;;;10388445;28;20378;-79
2022/09/15 16:04:20;;;;;;;7.93;6.20;;;19.50;99.90;;;;;;10406746;28;20712;-79
2022/09/15 16:09:22;;;;;;;6.63;6.20;;;19.40;99.90;;;;;;10386356;28;20230;-79
2022/09/15 16:14:24;;;;;;;6.67;6.00;;;19.40;99.90;;;;;;10407976;28;20206;-79
2022/09/15 16:19:28;;;;;;;5.80;5.40;;;19.30;99.90;;;;;;10394026;28;20244;-79
2022/09/15 16:24:30;;;;;;;8.70;6.30;;;19.20;99.90;;;;;;10416445;28;20245;-79
2022/09/15 16:29:35;;;;;;;6.30;5.80;;;19.10;99.90;;;;;;10391946;28;20256;-79
2022/09/15 16:34:38;;;;;;;7.73;7.10;;;19.00;99.90;;;;;;10415459;28;20222;-79
2022/09/15 16:39:40;;;;;;;10.37;9.50;;;19.00;99.90;;;;;;10392516;28;20214;-79
2022/09/15 16:44:42;;;;;;;8.47;7.67;;;19.00;99.90;;;;;;10415951;28;20226;-79
2022/09/15 16:49:46;;;;;;;7.90;7.30;;;19.00;99.90;;;;;;10393024;28;20244;-79
2022/09/15 16:54:48;;;;;;;8.00;7.20;;;19.00;99.90;;;;;;10423449;28;20202;-78
2022/09/15 16:59:50;;;;;;;7.33;6.83;;;19.00;99.90;;;;;;10399623;28;20245;-79
2022/09/15 17:04:53;;;;;;;7.73;7.13;;;19.00;99.90;;;;;;10421425;28;20205;-79
2022/09/15 17:09:55;;;;;;;7.90;7.20;;;19.00;99.90;;;;;;10394315;28;20226;-78
2022/09/15 17:14:57;;;;;;;6.60;6.10;;;19.00;99.90;;;;;;10418754;28;20213;-79
2022/09/15 17:20:01;;;;;;;7.33;6.63;;;18.90;99.90;;;;;;10385248;28;20218;-79
2022/09/15 17:25:19;;;;;;;5.83;5.43;;;18.80;99.90;;;;;;10413682;28;20218;-79
2022/09/15 17:30:23;;;;;;;6.30;5.80;;;18.80;99.90;;;;;;10386096;28;20688;-79
2022/09/15 17:35:27;;;;;;;6.70;6.30;;;18.60;99.90;;;;;;10412225;28;20602;-79
2022/09/15 17:40:29;;;;;;;6.73;6.33;;;18.50;99.90;;;;;;10386503;28;20354;-79
2022/09/15 17:45:33;;;;;;;6.40;6.00;;;18.50;99.90;;;;;;10413424;28;20281;-79
2022/09/15 17:50:37;;;;;;;6.53;5.90;;;18.40;99.90;;;;;;10384359;28;20674;-79
2022/09/15 17:55:40;;;;;;;6.80;6.30;;;18.30;99.90;;;;;;10411373;28;20194;-79
2022/09/15 18:00:44;;;;;;;6.00;5.50;;;18.30;99.90;;;;;;10386549;28;20286;-79
2022/09/15 18:05:48;;;;;;;6.30;5.90;;;18.20;99.90;;;;;;10415872;28;20198;-79
2022/09/15 18:10:50;;;;;;;5.90;5.60;;;18.20;99.90;;;;;;10384269;28;20308;-79
2022/09/15 18:15:53;;;;;;;6.40;5.90;;;18.20;99.90;;;;;;10413084;28;20189;-78
2022/09/15 18:20:57;;;;;;;6.57;6.13;;;18.20;99.90;;;;;;10381470;28;20250;-78
2022/09/15 18:25:59;;;;;;;6.23;5.70;;;18.10;99.90;;;;;;10411365;28;20682;-78
2022/09/15 18:31:01;;;;;;;6.73;6.23;;;18.10;99.90;;;;;;10380046;28;20210;-79
2022/09/15 18:36:06;;;;;;;6.67;6.27;;;18.10;99.90;;;;;;10412435;28;20612;-79
2022/09/15 18:41:10;;;;;;;6.90;6.40;;;18.10;99.90;;;;;;10380500;28;20308;-79
2022/09/15 18:46:12;;;;;;;6.40;6.00;;;18.10;99.90;;;;;;10413275;28;20304;-78
2022/09/15 18:51:16;;;;;;;6.93;6.43;;;18.10;99.90;;;;;;10379523;28;20264;-79
2022/09/15 18:56:18;;;;;;;8.87;6.20;;;18.10;99.90;;;;;;10412823;28;20199;-79
2022/09/15 19:01:20;;;;;;;6.93;6.20;;;18.10;99.90;;;;;;10379351;28;20771;-79
2022/09/15 19:06:24;;;;;;;6.50;5.90;;;18.10;99.90;;;;;;10413758;28;20230;-79
2022/09/15 19:11:27;;;;;;;6.70;6.20;;;18.00;99.90;;;;;;10377156;28;20229;-79
2022/09/15 19:16:31;;;;;;;6.70;6.10;;;18.00;99.90;;;;;;10412934;28;20276;-78
2022/09/15 19:21:35;;;;;;;7.37;6.63;;;18.00;99.90;;;;;;10377428;28;20278;-79
2022/09/15 19:26:38;;;;;;;6.90;6.23;;;17.90;99.90;;;;;;10412126;28;20307;-79
2022/09/15 19:31:40;;;;;;;6.27;5.87;;;17.80;99.90;;;;;;10359622;28;20215;-79
2022/09/15 19:36:43;;;;;;;7.90;7.20;;;17.80;99.90;;;;;;10413535;28;20189;-79
2022/09/15 19:41:45;;;;;;;6.00;5.50;;;17.70;99.90;;;;;;10374860;28;20728;-78
2022/09/15 19:46:47;;;;;;;6.67;6.07;;;17.60;99.90;;;;;;10412340;28;20194;-79
2022/09/15 19:51:54;;;;;;;7.57;7.07;;;17.50;99.90;;;;;;10378769;28;20298;-78
2022/09/15 19:56:56;;;;;;;7.73;7.13;;;17.40;99.90;;;;;;10421912;28;20198;-79
2022/09/15 20:01:59;;;;;;;7.23;6.73;;;17.40;99.90;;;;;;10380707;28;20222;-78
2022/09/15 20:07:02;;;;;;;8.10;7.50;;;17.30;99.90;;;;;;10421075;28;20229;-79
2022/09/15 20:12:05;;;;;;;8.47;7.93;;;17.20;99.90;;;;;;10381839;28;20305;-79
2022/09/15 20:17:07;;;;;;;8.10;7.30;;;17.20;99.90;;;;;;10421171;28;20205;-78
2022/09/15 20:22:10;;;;;;;7.00;6.50;;;17.20;99.90;;;;;;10379394;28;20226;-78
2022/09/15 20:27:12;;;;;;;6.97;6.57;;;17.10;99.90;;;;;;10418819;28;20233;-79
2022/09/15 20:32:14;;;;;;;8.30;7.70;;;17.10;99.90;;;;;;10380838;28;20714;-78
2022/09/15 20:37:18;;;;;;;7.07;6.60;;;17.10;99.90;;;;;;10418835;28;20726;-79
2022/09/15 20:42:20;;;;;;;7.37;6.87;;;17.10;99.90;;;;;;10382093;28;20253;-79
2022/09/15 20:47:22;;;;;;;8.00;7.50;;;17.00;99.90;;;;;;10418979;28;20201;-79
2022/09/15 20:52:25;;;;;;;6.90;6.30;;;17.00;99.90;;;;;;10382455;28;20214;-79
2022/09/15 20:57:27;;;;;;;10.33;7.07;;;17.00;99.90;;;;;;10416629;28;20198;-79
2022/09/15 21:02:30;;;;;;;7.77;7.07;;;17.00;99.90;;;;;;10420280;28;20720;-79
2022/09/15 21:07:33;;;;;;;7.73;7.13;;;16.90;99.90;;;;;;10363165;28;20209;-78
2022/09/15 21:12:35;;;;;;;7.60;7.10;;;16.90;99.90;;;;;;10420606;28;20221;-78
2022/09/15 21:17:40;;;;;;;7.47;6.93;;;16.90;99.90;;;;;;10423376;28;20544;-78
2022/09/15 21:22:44;;;;;;;7.30;6.70;;;16.90;99.90;;;;;;10386388;28;20222;-78
2022/09/15 21:27:46;;;;;;;7.80;7.30;;;16.80;99.90;;;;;;10418975;28;20614;-78
2022/09/15 21:32:48;;;;;;;8.97;8.23;;;16.80;99.90;;;;;;10387323;28;20221;-78
2022/09/15 21:37:51;;;;;;;9.90;7.90;;;16.80;99.90;;;;;;10425197;28;20257;-79
2022/09/15 21:42:53;;;;;;;8.20;7.60;;;16.90;99.90;;;;;;10391626;28;20333;-79
2022/09/15 21:48:09;;;;;;;8.17;7.60;;;16.80;99.90;;;;;;10414033;28;20194;-78
2022/09/15 21:53:14;;;;;;;8.67;8.07;;;16.80;99.90;;;;;;10378269;28;20221;-79
2022/09/15 21:58:17;;;;;;;8.70;8.00;;;16.80;99.90;;;;;;10418527;28;20236;-79
2022/09/15 22:03:20;;;;;;;9.07;8.47;;;16.80;99.90;;;;;;10383596;28;20242;-78
2022/09/15 22:08:23;;;;;;;8.50;7.70;;;16.70;99.90;;;;;;10416297;28;20688;-78
2022/09/15 22:13:25;;;;;;;8.83;7.97;;;16.70;99.90;;;;;;10385407;28;20209;-79
2022/09/15 22:18:28;;;;;;;7.73;7.20;;;16.70;99.90;;;;;;10416912;28;20225;-78
2022/09/15 22:23:31;;;;;;;8.30;7.60;;;16.70;99.90;;;;;;10387902;28;20695;-78
2022/09/15 22:28:33;;;;;;;7.00;6.40;;;16.70;99.90;;;;;;10414837;28;20198;-78
2022/09/15 22:33:36;;;;;;;6.93;6.40;;;16.60;99.90;;;;;;10387148;28;20194;-78
2022/09/15 22:38:39;;;;;;;8.03;7.43;;;16.70;99.90;;;;;;10412662;28;20220;-78
2022/09/15 22:43:43;;;;;;;8.20;6.70;;;16.70;99.90;;;;;;10385061;28;20205;-79
2022/09/15 22:48:45;;;;;;;7.10;6.50;;;16.70;99.90;;;;;;10411414;28;20224;-78
2022/09/15 22:53:52;;;;;;;8.53;7.10;;;16.70;99.90;;;;;;10386954;28;20194;-78
2022/09/15 22:58:56;;;;;;;7.30;6.37;;;16.70;99.90;;;;;;10413156;28;20666;-78
2022/09/15 23:03:59;;;;;;;7.60;7.10;;;16.80;99.90;;;;;;10387513;28;20556;-78
2022/09/15 23:09:07;;;;;;;6.80;6.30;;;16.80;99.90;;;;;;10414076;28;20719;-78
2022/09/15 23:14:13;;;;;;;6.67;6.07;;;16.80;99.90;;;;;;10385868;28;20210;-78
2022/09/15 23:19:15;;;;;;;7.30;6.70;;;16.80;99.90;;;;;;10412805;28;20268;-79
2022/09/15 23:24:19;;;;;;;6.87;6.27;;;16.90;99.90;;;;;;10391537;28;20202;-78
2022/09/15 23:29:23;;;;;;;7.73;7.13;;;16.90;99.90;;;;;;10410291;28;20237;-78
2022/09/15 23:34:25;;;;;;;6.17;5.83;;;16.90;99.90;;;;;;10385888;28;20254;-78
2022/09/15 23:39:28;;;;;;;7.30;6.80;;;17.00;99.90;;;;;;10409008;28;20218;-78
2022/09/15 23:44:30;;;;;;;6.60;6.00;;;17.00;99.90;;;;;;10387284;28;20249;-79
2022/09/15 23:49:33;;;;;;;7.27;6.57;;;17.10;99.90;;;;;;10409236;28;20218;-79
2022/09/15 23:54:36;;;;;;;7.37;6.70;;;17.10;99.90;;;;;;10388462;28;20278;-79
2022/09/15 23:59:38;;;;;;;5.90;5.60;;;17.10;99.90;;;;;;10408944;28;20216;-79
